sensor_id;sensor_type;location;lat;lon;timestamp;temperature;humidity
69823;SHT31;57119;52.516;13.508;2023-03-16T00:01:13;0.27;99.57
69823;SHT31;57119;52.516;13.508;2023-03-16T00:03:38;0.18;99.75
69823;SHT31;57119;52.516;13.508;2023-03-16T00:06:04;0.16;99.91
69823;SHT31;57119;52.516;13.508;2023-03-16T00:08:29;0.03;99.99
69823;SHT31;57119;52.516;13.508;2023-03-16T00:10:55;0.02;99.99
69823;SHT31;57119;52.516;13.508;2023-03-16T00:13:22;-0.01;99.99
69823;SHT31;57119;52.516;13.508;2023-03-16T00:15:52;-0.08;99.99
69823;SHT31;57119;52.516;13.508;2023-03-16T00:18:18;-0.15;99.99
69823;SHT31;57119;52.516;13.508;2023-03-16T00:20:43;-0.22;99.99
69823;SHT31;57119;52.516;13.508;2023-03-16T00:23:08;-0.28;99.99
69823;SHT31;57119;52.516;13.508;2023-03-16T00:25:34;-0.28;99.99
69823;SHT31;57119;52.516;13.508;2023-03-16T00:27:59;-0.26;99.99
69823;SHT31;57119;52.516;13.508;2023-03-16T00:30:30;-0.22;99.99
69823;SHT31;57119;52.516;13.508;2023-03-16T00:32:57;-0.25;99.99
69823;SHT31;57119;52.516;13.508;2023-03-16T00:35:22;-0.31;99.99
69823;SHT31;57119;52.516;13.508;2023-03-16T00:37:48;-0.24;99.99
69823;SHT31;57119;52.516;13.508;2023-03-16T00:40:13;-0.25;99.99
69823;SHT31;57119;52.516;13.508;2023-03-16T00:42:38;-0.22;99.99
69823;SHT31;57119;52.516;13.508;2023-03-16T00:45:04;-0.31;99.99
69823;SHT31;57119;52.516;13.508;2023-03-16T00:47:32;-0.31;99.99
69823;SHT31;57119;52.516;13.508;2023-03-16T00:49:58;-0.26;99.99
69823;SHT31;57119;52.516;13.508;2023-03-16T00:52:24;-0.31;99.99
69823;SHT31;57119;52.516;13.508;2023-03-16T00:54:52;-0.29;99.99
69823;SHT31;57119;52.516;13.508;2023-03-16T00:57:18;-0.38;99.99
69823;SHT31;57119;52.516;13.508;2023-03-16T00:59:45;-0.43;99.99
69823;SHT31;57119;52.516;13.508;2023-03-16T01:02:10;-0.48;99.99
69823;SHT31;57119;52.516;13.508;2023-03-16T01:04:37;-0.45;99.99
69823;SHT31;57119;52.516;13.508;2023-03-16T01:07:05;-0.48;99.99
69823;SHT31;57119;52.516;13.508;2023-03-16T01:09:32;-0.48;99.99
69823;SHT31;57119;52.516;13.508;2023-03-16T01:12:05;-0.63;99.99
69823;SHT31;57119;52.516;13.508;2023-03-16T01:14:33;-0.65;99.99
69823;SHT31;57119;52.516;13.508;2023-03-16T01:16:59;-0.66;99.99
69823;SHT31;57119;52.516;13.508;2023-03-16T01:19:25;-0.63;99.99
69823;SHT31;57119;52.516;13.508;2023-03-16T01:21:51;-0.66;99.99
69823;SHT31;57119;52.516;13.508;2023-03-16T01:24:16;-0.74;99.99
69823;SHT31;57119;52.516;13.508;2023-03-16T01:26:42;-0.86;99.99
69823;SHT31;57119;52.516;13.508;2023-03-16T01:29:07;-0.96;99.99
69823;SHT31;57119;52.516;13.508;2023-03-16T01:31:32;-0.97;99.99
69823;SHT31;57119;52.516;13.508;2023-03-16T01:33:58;-1.04;99.99
69823;SHT31;57119;52.516;13.508;2023-03-16T01:36:23;-0.87;99.99
69823;SHT31;57119;52.516;13.508;2023-03-16T01:38:49;-0.91;99.99
69823;SHT31;57119;52.516;13.508;2023-03-16T01:41:15;-0.99;99.99
69823;SHT31;57119;52.516;13.508;2023-03-16T01:43:40;-0.91;99.99
69823;SHT31;57119;52.516;13.508;2023-03-16T01:48:41;-1.04;99.99
69823;SHT31;57119;52.516;13.508;2023-03-16T01:53:33;-0.97;99.99
69823;SHT31;57119;52.516;13.508;2023-03-16T01:56:01;-1.01;99.99
69823;SHT31;57119;52.516;13.508;2023-03-16T01:58:30;-1.00;99.99
69823;SHT31;57119;52.516;13.508;2023-03-16T02:00:55;-0.94;99.99
69823;SHT31;57119;52.516;13.508;2023-03-16T02:03:23;-0.89;99.99
69823;SHT31;57119;52.516;13.508;2023-03-16T02:06:01;-1.00;99.99
69823;SHT31;57119;52.516;13.508;2023-03-16T02:08:28;-0.97;99.99
69823;SHT31;57119;52.516;13.508;2023-03-16T02:10:55;-0.94;99.99
69823;SHT31;57119;52.516;13.508;2023-03-16T02:13:24;-1.04;99.99
69823;SHT31;57119;52.516;13.508;2023-03-16T02:15:51;-1.08;99.99
69823;SHT31;57119;52.516;13.508;2023-03-16T02:18:18;-1.07;99.99
69823;SHT31;57119;52.516;13.508;2023-03-16T02:20:51;-1.03;99.99
69823;SHT31;57119;52.516;13.508;2023-03-16T02:23:20;-1.11;99.99
69823;SHT31;57119;52.516;13.508;2023-03-16T02:26:09;-1.12;99.99
69823;SHT31;57119;52.516;13.508;2023-03-16T02:29:16;-1.05;99.99
69823;SHT31;57119;52.516;13.508;2023-03-16T02:31:42;-1.08;99.99
69823;SHT31;57119;52.516;13.508;2023-03-16T02:34:09;-1.12;99.99
69823;SHT31;57119;52.516;13.508;2023-03-16T02:36:36;-1.10;99.99
69823;SHT31;57119;52.516;13.508;2023-03-16T02:39:03;-1.14;99.99
69823;SHT31;57119;52.516;13.508;2023-03-16T02:41:30;-1.14;99.99
69823;SHT31;57119;52.516;13.508;2023-03-16T02:44:12;-1.20;99.99
69823;SHT31;57119;52.516;13.508;2023-03-16T02:46:41;-1.24;99.99
69823;SHT31;57119;52.516;13.508;2023-03-16T02:49:25;-1.31;99.99
69823;SHT31;57119;52.516;13.508;2023-03-16T02:51:51;-1.35;99.99
69823;SHT31;57119;52.516;13.508;2023-03-16T02:54:17;-1.42;99.99
69823;SHT31;57119;52.516;13.508;2023-03-16T02:56:42;-1.48;99.99
69823;SHT31;57119;52.516;13.508;2023-03-16T02:59:08;-1.60;99.99
69823;SHT31;57119;52.516;13.508;2023-03-16T03:01:33;-1.60;99.99
69823;SHT31;57119;52.516;13.508;2023-03-16T03:04:01;-1.75;99.99
69823;SHT31;57119;52.516;13.508;2023-03-16T03:06:27;-1.75;99.99
69823;SHT31;57119;52.516;13.508;2023-03-16T03:08:52;-1.90;99.99
69823;SHT31;57119;52.516;13.508;2023-03-16T03:11:17;-2.00;99.99
69823;SHT31;57119;52.516;13.508;2023-03-16T03:13:44;-1.89;99.99
69823;SHT31;57119;52.516;13.508;2023-03-16T03:16:10;-1.99;99.99
69823;SHT31;57119;52.516;13.508;2023-03-16T03:18:36;-1.97;99.99
69823;SHT31;57119;52.516;13.508;2023-03-16T03:21:01;-2.07;99.99
69823;SHT31;57119;52.516;13.508;2023-03-16T03:23:27;-2.18;99.99
69823;SHT31;57119;52.516;13.508;2023-03-16T03:25:56;-2.27;99.99
69823;SHT31;57119;52.516;13.508;2023-03-16T03:28:22;-2.26;99.99
69823;SHT31;57119;52.516;13.508;2023-03-16T03:30:47;-2.21;99.99
69823;SHT31;57119;52.516;13.508;2023-03-16T03:33:13;-2.17;99.99
69823;SHT31;57119;52.516;13.508;2023-03-16T03:35:38;-2.18;99.99
69823;SHT31;57119;52.516;13.508;2023-03-16T03:38:03;-2.07;99.99
69823;SHT31;57119;52.516;13.508;2023-03-16T03:40:29;-2.03;99.99
69823;SHT31;57119;52.516;13.508;2023-03-16T03:42:54;-2.03;99.99
69823;SHT31;57119;52.516;13.508;2023-03-16T03:45:20;-2.09;99.99
69823;SHT31;57119;52.516;13.508;2023-03-16T03:47:45;-2.07;99.99
69823;SHT31;57119;52.516;13.508;2023-03-16T03:50:11;-1.86;99.99
69823;SHT31;57119;52.516;13.508;2023-03-16T03:52:37;-1.83;99.99
69823;SHT31;57119;52.516;13.508;2023-03-16T03:55:03;-1.75;99.99
69823;SHT31;57119;52.516;13.508;2023-03-16T03:57:30;-1.62;99.99
69823;SHT31;57119;52.516;13.508;2023-03-16T03:59:55;-1.54;99.99
69823;SHT31;57119;52.516;13.508;2023-03-16T04:02:20;-1.37;99.99
69823;SHT31;57119;52.516;13.508;2023-03-16T04:04:46;-1.38;99.99
69823;SHT31;57119;52.516;13.508;2023-03-16T04:07:11;-1.30;99.99
69823;SHT31;57119;52.516;13.508;2023-03-16T04:09:37;-1.32;99.99
69823;SHT31;57119;52.516;13.508;2023-03-16T04:12:04;-1.28;99.99
69823;SHT31;57119;52.516;13.508;2023-03-16T04:14:30;-1.27;99.99
69823;SHT31;57119;52.516;13.508;2023-03-16T04:16:56;-1.30;99.99
69823;SHT31;57119;52.516;13.508;2023-03-16T04:19:22;-1.30;99.99
69823;SHT31;57119;52.516;13.508;2023-03-16T04:21:49;-1.31;99.99
69823;SHT31;57119;52.516;13.508;2023-03-16T04:24:15;-1.27;99.99
69823;SHT31;57119;52.516;13.508;2023-03-16T04:26:41;-1.24;99.99
69823;SHT31;57119;52.516;13.508;2023-03-16T04:29:10;-1.20;99.99
69823;SHT31;57119;52.516;13.508;2023-03-16T04:31:35;-1.25;99.99
69823;SHT31;57119;52.516;13.508;2023-03-16T04:34:01;-1.32;99.99
69823;SHT31;57119;52.516;13.508;2023-03-16T04:36:26;-1.34;99.99
69823;SHT31;57119;52.516;13.508;2023-03-16T04:38:52;-1.37;99.99
69823;SHT31;57119;52.516;13.508;2023-03-16T04:41:17;-1.40;99.99
69823;SHT31;57119;52.516;13.508;2023-03-16T04:43:43;-1.52;99.99
69823;SHT31;57119;52.516;13.508;2023-03-16T04:46:09;-1.52;99.99
69823;SHT31;57119;52.516;13.508;2023-03-16T04:48:36;-1.47;99.99
69823;SHT31;57119;52.516;13.508;2023-03-16T04:51:02;-1.48;99.99
69823;SHT31;57119;52.516;13.508;2023-03-16T04:53:31;-1.55;99.99
69823;SHT31;57119;52.516;13.508;2023-03-16T04:55:57;-1.70;99.99
69823;SHT31;57119;52.516;13.508;2023-03-16T04:58:23;-1.75;99.99
69823;SHT31;57119;52.516;13.508;2023-03-16T05:00:52;-1.80;99.99
69823;SHT31;57119;52.516;13.508;2023-03-16T05:03:18;-1.91;99.99
69823;SHT31;57119;52.516;13.508;2023-03-16T05:05:45;-1.90;99.99
69823;SHT31;57119;52.516;13.508;2023-03-16T05:08:10;-1.89;99.99
69823;SHT31;57119;52.516;13.508;2023-03-16T05:10:36;-1.86;99.99
69823;SHT31;57119;52.516;13.508;2023-03-16T05:13:03;-1.85;99.99
69823;SHT31;57119;52.516;13.508;2023-03-16T05:15:29;-1.85;99.99
69823;SHT31;57119;52.516;13.508;2023-03-16T05:17:54;-1.83;99.99
69823;SHT31;57119;52.516;13.508;2023-03-16T05:20:22;-1.82;99.99
69823;SHT31;57119;52.516;13.508;2023-03-16T05:22:48;-1.86;99.99
69823;SHT31;57119;52.516;13.508;2023-03-16T05:25:15;-2.00;99.99
69823;SHT31;57119;52.516;13.508;2023-03-16T05:27:45;-2.10;99.99
69823;SHT31;57119;52.516;13.508;2023-03-16T05:30:12;-2.18;99.99
69823;SHT31;57119;52.516;13.508;2023-03-16T05:32:38;-2.28;99.99
69823;SHT31;57119;52.516;13.508;2023-03-16T05:35:04;-2.27;99.99
69823;SHT31;57119;52.516;13.508;2023-03-16T05:37:30;-2.23;99.99
69823;SHT31;57119;52.516;13.508;2023-03-16T05:39:56;-2.15;99.99
69823;SHT31;57119;52.516;13.508;2023-03-16T05:42:23;-2.11;99.99
69823;SHT31;57119;52.516;13.508;2023-03-16T05:44:51;-2.11;99.99
69823;SHT31;57119;52.516;13.508;2023-03-16T05:47:16;-2.11;99.99
69823;SHT31;57119;52.516;13.508;2023-03-16T05:49:42;-2.09;99.99
69823;SHT31;57119;52.516;13.508;2023-03-16T05:52:07;-2.10;99.99
69823;SHT31;57119;52.516;13.508;2023-03-16T05:54:32;-2.11;99.99
69823;SHT31;57119;52.516;13.508;2023-03-16T05:56:58;-2.00;99.99
69823;SHT31;57119;52.516;13.508;2023-03-16T05:59:24;-1.91;99.99
69823;SHT31;57119;52.516;13.508;2023-03-16T06:01:50;-1.63;99.99
69823;SHT31;57119;52.516;13.508;2023-03-16T06:04:16;-1.35;99.99
69823;SHT31;57119;52.516;13.508;2023-03-16T06:06:41;-0.74;99.11
69823;SHT31;57119;52.516;13.508;2023-03-16T06:09:06;-0.48;97.42
69823;SHT31;57119;52.516;13.508;2023-03-16T06:11:33;0.02;96.83
69823;SHT31;57119;52.516;13.508;2023-03-16T06:13:59;0.24;96.07
69823;SHT31;57119;52.516;13.508;2023-03-16T06:16:25;0.38;95.97
69823;SHT31;57119;52.516;13.508;2023-03-16T06:18:50;0.85;94.51
69823;SHT31;57119;52.516;13.508;2023-03-16T06:21:15;1.13;93.66
69823;SHT31;57119;52.516;13.508;2023-03-16T06:23:41;1.03;92.55
69823;SHT31;57119;52.516;13.508;2023-03-16T06:26:07;1.16;92.01
69823;SHT31;57119;52.516;13.508;2023-03-16T06:28:32;1.58;90.88
69823;SHT31;57119;52.516;13.508;2023-03-16T06:30:58;1.98;89.72
69823;SHT31;57119;52.516;13.508;2023-03-16T06:33:23;2.18;88.42
69823;SHT31;57119;52.516;13.508;2023-03-16T06:35:49;2.22;87.54
69823;SHT31;57119;52.516;13.508;2023-03-16T06:38:16;2.50;87.42
69823;SHT31;57119;52.516;13.508;2023-03-16T06:40:41;2.92;86.40
69823;SHT31;57119;52.516;13.508;2023-03-16T06:43:07;3.46;84.75
69823;SHT31;57119;52.516;13.508;2023-03-16T06:45:33;3.74;84.59
69823;SHT31;57119;52.516;13.508;2023-03-16T06:47:58;3.77;84.73
69823;SHT31;57119;52.516;13.508;2023-03-16T06:50:23;4.43;82.83
69823;SHT31;57119;52.516;13.508;2023-03-16T06:52:49;4.35;82.46
69823;SHT31;57119;52.516;13.508;2023-03-16T06:55:14;4.41;81.30
69823;SHT31;57119;52.516;13.508;2023-03-16T06:57:40;4.67;81.64
69823;SHT31;57119;52.516;13.508;2023-03-16T07:00:07;5.22;79.42
69823;SHT31;57119;52.516;13.508;2023-03-16T07:02:33;5.00;78.66
69823;SHT31;57119;52.516;13.508;2023-03-16T07:05:00;5.65;77.89
69823;SHT31;57119;52.516;13.508;2023-03-16T07:07:26;6.08;76.32
69823;SHT31;57119;52.516;13.508;2023-03-16T07:09:51;6.14;75.51
69823;SHT31;57119;52.516;13.508;2023-03-16T07:12:17;6.34;75.68
69823;SHT31;57119;52.516;13.508;2023-03-16T07:14:42;7.00;75.77
69823;SHT31;57119;52.516;13.508;2023-03-16T07:17:08;6.45;74.09
69823;SHT31;57119;52.516;13.508;2023-03-16T07:19:33;7.32;72.71
69823;SHT31;57119;52.516;13.508;2023-03-16T07:21:59;7.18;72.49
69823;SHT31;57119;52.516;13.508;2023-03-16T07:24:26;7.85;71.92
69823;SHT31;57119;52.516;13.508;2023-03-16T07:26:52;8.23;70.97
69823;SHT31;57119;52.516;13.508;2023-03-16T07:29:17;8.65;69.76
69823;SHT31;57119;52.516;13.508;2023-03-16T07:31:43;8.07;67.81
69823;SHT31;57119;52.516;13.508;2023-03-16T07:34:08;7.55;69.00
69823;SHT31;57119;52.516;13.508;2023-03-16T07:36:33;8.42;69.49
69823;SHT31;57119;52.516;13.508;2023-03-16T07:38:59;8.82;67.39
69823;SHT31;57119;52.516;13.508;2023-03-16T07:41:25;8.72;66.07
69823;SHT31;57119;52.516;13.508;2023-03-16T07:43:51;9.74;64.27
69823;SHT31;57119;52.516;13.508;2023-03-16T07:46:17;9.37;63.15
69823;SHT31;57119;52.516;13.508;2023-03-16T07:48:43;9.29;63.54
69823;SHT31;57119;52.516;13.508;2023-03-16T07:51:10;9.59;61.53
69823;SHT31;57119;52.516;13.508;2023-03-16T07:53:36;9.85;61.37
69823;SHT31;57119;52.516;13.508;2023-03-16T07:56:01;10.44;59.99
69823;SHT31;57119;52.516;13.508;2023-03-16T07:58:27;11.10;57.44
69823;SHT31;57119;52.516;13.508;2023-03-16T08:00:56;10.74;57.81
69823;SHT31;57119;52.516;13.508;2023-03-16T08:03:23;10.12;58.72
69823;SHT31;57119;52.516;13.508;2023-03-16T08:05:48;9.46;60.22
69823;SHT31;57119;52.516;13.508;2023-03-16T08:08:14;11.01;57.82
69823;SHT31;57119;52.516;13.508;2023-03-16T08:10:40;11.59;56.79
69823;SHT31;57119;52.516;13.508;2023-03-16T08:13:05;11.93;56.02
69823;SHT31;57119;52.516;13.508;2023-03-16T08:15:31;10.57;57.99
69823;SHT31;57119;52.516;13.508;2023-03-16T08:18:00;11.87;55.68
69823;SHT31;57119;52.516;13.508;2023-03-16T08:20:29;13.37;53.54
69823;SHT31;57119;52.516;13.508;2023-03-16T08:22:54;13.33;52.25
69823;SHT31;57119;52.516;13.508;2023-03-16T08:25:20;13.47;52.45
69823;SHT31;57119;52.516;13.508;2023-03-16T08:27:45;12.77;52.20
69823;SHT31;57119;52.516;13.508;2023-03-16T08:30:13;13.72;50.90
69823;SHT31;57119;52.516;13.508;2023-03-16T08:32:40;13.78;50.29
69823;SHT31;57119;52.516;13.508;2023-03-16T08:35:08;13.82;50.00
69823;SHT31;57119;52.516;13.508;2023-03-16T08:37:34;12.56;51.50
69823;SHT31;57119;52.516;13.508;2023-03-16T08:39:59;12.02;52.84
69823;SHT31;57119;52.516;13.508;2023-03-16T08:42:25;12.66;52.58
69823;SHT31;57119;52.516;13.508;2023-03-16T08:44:50;13.38;50.56
69823;SHT31;57119;52.516;13.508;2023-03-16T08:47:20;14.19;49.47
69823;SHT31;57119;52.516;13.508;2023-03-16T08:49:45;12.62;50.66
69823;SHT31;57119;52.516;13.508;2023-03-16T08:52:11;13.48;50.94
69823;SHT31;57119;52.516;13.508;2023-03-16T08:54:37;13.85;49.14
69823;SHT31;57119;52.516;13.508;2023-03-16T08:57:03;13.95;49.11
69823;SHT31;57119;52.516;13.508;2023-03-16T08:59:28;15.70;48.26
69823;SHT31;57119;52.516;13.508;2023-03-16T09:01:54;13.59;49.19
69823;SHT31;57119;52.516;13.508;2023-03-16T09:04:19;14.36;47.84
69823;SHT31;57119;52.516;13.508;2023-03-16T09:06:45;14.34;49.63
69823;SHT31;57119;52.516;13.508;2023-03-16T09:09:12;14.51;47.53
69823;SHT31;57119;52.516;13.508;2023-03-16T09:11:37;16.41;45.83
69823;SHT31;57119;52.516;13.508;2023-03-16T09:14:02;15.98;45.47
69823;SHT31;57119;52.516;13.508;2023-03-16T09:16:28;15.67;45.66
69823;SHT31;57119;52.516;13.508;2023-03-16T09:18:55;16.00;45.09
69823;SHT31;57119;52.516;13.508;2023-03-16T09:21:21;15.95;45.40
69823;SHT31;57119;52.516;13.508;2023-03-16T09:23:47;16.33;44.58
69823;SHT31;57119;52.516;13.508;2023-03-16T09:26:13;16.67;43.92
69823;SHT31;57119;52.516;13.508;2023-03-16T09:28:40;15.81;45.98
69823;SHT31;57119;52.516;13.508;2023-03-16T09:31:07;15.80;43.97
69823;SHT31;57119;52.516;13.508;2023-03-16T09:33:34;15.92;43.18
69823;SHT31;57119;52.516;13.508;2023-03-16T09:36:00;15.88;44.34
69823;SHT31;57119;52.516;13.508;2023-03-16T09:38:26;14.71;43.55
69823;SHT31;57119;52.516;13.508;2023-03-16T09:41:01;14.41;43.96
69823;SHT31;57119;52.516;13.508;2023-03-16T09:43:42;15.22;43.09
69823;SHT31;57119;52.516;13.508;2023-03-16T09:48:50;14.45;44.54
69823;SHT31;57119;52.516;13.508;2023-03-16T09:51:26;15.77;42.89
69823;SHT31;57119;52.516;13.508;2023-03-16T09:53:58;15.39;43.79
69823;SHT31;57119;52.516;13.508;2023-03-16T09:56:45;16.71;41.76
69823;SHT31;57119;52.516;13.508;2023-03-16T10:05:21;15.87;40.49
69823;SHT31;57119;52.516;13.508;2023-03-16T10:13:04;17.11;39.52
69823;SHT31;57119;52.516;13.508;2023-03-16T10:15:37;17.46;39.36
69823;SHT31;57119;52.516;13.508;2023-03-16T10:18:17;15.95;40.73
69823;SHT31;57119;52.516;13.508;2023-03-16T10:20:44;18.48;38.39
69823;SHT31;57119;52.516;13.508;2023-03-16T10:23:31;18.45;37.03
69823;SHT31;57119;52.516;13.508;2023-03-16T10:26:00;17.04;37.44
69823;SHT31;57119;52.516;13.508;2023-03-16T10:28:28;19.74;36.05
69823;SHT31;57119;52.516;13.508;2023-03-16T10:30:58;17.58;36.36
69823;SHT31;57119;52.516;13.508;2023-03-16T10:33:32;17.15;35.82
69823;SHT31;57119;52.516;13.508;2023-03-16T10:36:33;17.86;36.60
69823;SHT31;57119;52.516;13.508;2023-03-16T10:39:07;16.22;37.35
69823;SHT31;57119;52.516;13.508;2023-03-16T10:41:44;15.53;38.78
69823;SHT31;57119;52.516;13.508;2023-03-16T10:44:13;16.01;39.54
69823;SHT31;57119;52.516;13.508;2023-03-16T10:49:22;19.48;35.50
69823;SHT31;57119;52.516;13.508;2023-03-16T10:51:57;18.69;35.51
69823;SHT31;57119;52.516;13.508;2023-03-16T10:54:33;20.22;34.78
69823;SHT31;57119;52.516;13.508;2023-03-16T10:57:01;20.50;34.31
69823;SHT31;57119;52.516;13.508;2023-03-16T10:59:30;19.58;34.56
69823;SHT31;57119;52.516;13.508;2023-03-16T11:01:57;17.93;36.29
69823;SHT31;57119;52.516;13.508;2023-03-16T11:04:23;15.57;38.57
69823;SHT31;57119;52.516;13.508;2023-03-16T11:06:56;17.72;37.62
69823;SHT31;57119;52.516;13.508;2023-03-16T11:09:24;19.57;35.42
69823;SHT31;57119;52.516;13.508;2023-03-16T11:11:50;18.25;35.85
69823;SHT31;57119;52.516;13.508;2023-03-16T11:14:24;20.09;36.47
69823;SHT31;57119;52.516;13.508;2023-03-16T11:17:01;18.58;34.95
69823;SHT31;57119;52.516;13.508;2023-03-16T11:19:50;20.26;33.37
69823;SHT31;57119;52.516;13.508;2023-03-16T11:22:20;21.08;35.15
69823;SHT31;57119;52.516;13.508;2023-03-16T11:25:03;22.14;34.91
69823;SHT31;57119;52.516;13.508;2023-03-16T11:27:44;20.83;33.43
69823;SHT31;57119;52.516;13.508;2023-03-16T11:30:27;18.47;35.04
69823;SHT31;57119;52.516;13.508;2023-03-16T11:32:53;18.47;36.86
69823;SHT31;57119;52.516;13.508;2023-03-16T11:38:18;16.59;36.93
69823;SHT31;57119;52.516;13.508;2023-03-16T11:41:02;16.15;37.35
69823;SHT31;57119;52.516;13.508;2023-03-16T11:43:46;19.35;34.90
69823;SHT31;57119;52.516;13.508;2023-03-16T11:46:21;18.14;36.55
69823;SHT31;57119;52.516;13.508;2023-03-16T11:51:29;19.44;33.48
69823;SHT31;57119;52.516;13.508;2023-03-16T11:56:38;19.95;32.91
69823;SHT31;57119;52.516;13.508;2023-03-16T11:59:32;22.37;32.86
69823;SHT31;57119;52.516;13.508;2023-03-16T12:10:08;18.20;35.81
69823;SHT31;57119;52.516;13.508;2023-03-16T12:15:33;20.08;33.37
69823;SHT31;57119;52.516;13.508;2023-03-16T12:18:49;20.91;34.50
69823;SHT31;57119;52.516;13.508;2023-03-16T12:20:53;17.15;34.16
69823;SHT31;57119;52.516;13.508;2023-03-16T12:23:40;19.35;34.17
69823;SHT31;57119;52.516;13.508;2023-03-16T12:26:07;18.04;34.18
69823;SHT31;57119;52.516;13.508;2023-03-16T12:28:33;16.29;36.00
69823;SHT31;57119;52.516;13.508;2023-03-16T12:39:31;22.75;32.92
69823;SHT31;57119;52.516;13.508;2023-03-16T12:42:29;18.61;34.37
69823;SHT31;57119;52.516;13.508;2023-03-16T12:47:42;17.50;35.58
69823;SHT31;57119;52.516;13.508;2023-03-16T12:50:15;19.57;33.39
69823;SHT31;57119;52.516;13.508;2023-03-16T12:52:43;20.09;33.76
69823;SHT31;57119;52.516;13.508;2023-03-16T12:55:15;19.09;30.74
69823;SHT31;57119;52.516;13.508;2023-03-16T12:57:44;18.65;29.71
69823;SHT31;57119;52.516;13.508;2023-03-16T13:00:12;18.11;32.51
69823;SHT31;57119;52.516;13.508;2023-03-16T13:02:41;19.31;32.49
69823;SHT31;57119;52.516;13.508;2023-03-16T13:05:12;21.59;30.81
69823;SHT31;57119;52.516;13.508;2023-03-16T13:07:47;19.06;29.43
69823;SHT31;57119;52.516;13.508;2023-03-16T13:10:13;21.47;28.28
69823;SHT31;57119;52.516;13.508;2023-03-16T13:12:40;19.99;28.61
69823;SHT31;57119;52.516;13.508;2023-03-16T13:17:45;17.91;31.12
69823;SHT31;57119;52.516;13.508;2023-03-16T13:22:47;18.99;31.89
69823;SHT31;57119;52.516;13.508;2023-03-16T13:25:17;21.09;30.25
69823;SHT31;57119;52.516;13.508;2023-03-16T13:27:49;21.29;31.05
69823;SHT31;57119;52.516;13.508;2023-03-16T13:30:28;20.92;30.08
69823;SHT31;57119;52.516;13.508;2023-03-16T13:32:59;18.48;33.18
69823;SHT31;57119;52.516;13.508;2023-03-16T13:35:27;18.85;32.56
69823;SHT31;57119;52.516;13.508;2023-03-16T13:37:53;19.86;33.76
69823;SHT31;57119;52.516;13.508;2023-03-16T13:40:24;18.82;34.11
69823;SHT31;57119;52.516;13.508;2023-03-16T13:42:51;21.41;31.80
69823;SHT31;57119;52.516;13.508;2023-03-16T13:45:33;19.60;32.04
69823;SHT31;57119;52.516;13.508;2023-03-16T13:48:01;18.18;33.38
69823;SHT31;57119;52.516;13.508;2023-03-16T13:50:33;19.38;31.93
69823;SHT31;57119;52.516;13.508;2023-03-16T13:53:02;19.38;32.25
69823;SHT31;57119;52.516;13.508;2023-03-16T13:55:33;20.61;31.61
69823;SHT31;57119;52.516;13.508;2023-03-16T13:58:01;18.00;33.13
69823;SHT31;57119;52.516;13.508;2023-03-16T14:00:31;17.49;32.58
69823;SHT31;57119;52.516;13.508;2023-03-16T14:02:59;19.21;31.49
69823;SHT31;57119;52.516;13.508;2023-03-16T14:05:32;21.90;29.20
69823;SHT31;57119;52.516;13.508;2023-03-16T14:07:59;18.86;30.79
69823;SHT31;57119;52.516;13.508;2023-03-16T14:10:31;18.43;32.27
69823;SHT31;57119;52.516;13.508;2023-03-16T14:13:21;18.11;31.72
69823;SHT31;57119;52.516;13.508;2023-03-16T14:15:48;18.89;32.59
69823;SHT31;57119;52.516;13.508;2023-03-16T14:18:16;17.28;29.26
69823;SHT31;57119;52.516;13.508;2023-03-16T14:20:49;18.55;28.66
69823;SHT31;57119;52.516;13.508;2023-03-16T14:23:23;16.45;29.97
69823;SHT31;57119;52.516;13.508;2023-03-16T14:25:50;16.23;31.28
69823;SHT31;57119;52.516;13.508;2023-03-16T14:28:21;16.25;31.92
69823;SHT31;57119;52.516;13.508;2023-03-16T14:31:01;17.39;31.74
69823;SHT31;57119;52.516;13.508;2023-03-16T14:33:32;17.19;32.37
69823;SHT31;57119;52.516;13.508;2023-03-16T14:36:06;19.33;31.34
69823;SHT31;57119;52.516;13.508;2023-03-16T14:38:35;18.28;31.34
69823;SHT31;57119;52.516;13.508;2023-03-16T14:43:35;17.27;30.77
69823;SHT31;57119;52.516;13.508;2023-03-16T14:46:06;16.55;31.05
69823;SHT31;57119;52.516;13.508;2023-03-16T14:48:33;18.30;31.22
69823;SHT31;57119;52.516;13.508;2023-03-16T14:51:00;17.00;31.78
69823;SHT31;57119;52.516;13.508;2023-03-16T14:53:27;17.17;30.91
69823;SHT31;57119;52.516;13.508;2023-03-16T14:55:54;16.02;29.78
69823;SHT31;57119;52.516;13.508;2023-03-16T14:58:20;15.85;29.66
69823;SHT31;57119;52.516;13.508;2023-03-16T15:00:46;16.48;30.67
69823;SHT31;57119;52.516;13.508;2023-03-16T15:03:14;17.00;28.61
69823;SHT31;57119;52.516;13.508;2023-03-16T15:05:43;16.38;30.59
69823;SHT31;57119;52.516;13.508;2023-03-16T15:08:27;16.60;30.64
69823;SHT31;57119;52.516;13.508;2023-03-16T15:11:04;16.67;31.77
69823;SHT31;57119;52.516;13.508;2023-03-16T15:13:30;16.91;32.65
69823;SHT31;57119;52.516;13.508;2023-03-16T15:16:15;15.90;34.85
69823;SHT31;57119;52.516;13.508;2023-03-16T15:18:41;15.40;32.91
69823;SHT31;57119;52.516;13.508;2023-03-16T15:21:33;16.41;32.65
69823;SHT31;57119;52.516;13.508;2023-03-16T15:23:58;14.96;33.89
69823;SHT31;57119;52.516;13.508;2023-03-16T15:26:25;14.95;34.46
69823;SHT31;57119;52.516;13.508;2023-03-16T15:28:52;16.33;33.02
69823;SHT31;57119;52.516;13.508;2023-03-16T15:31:18;14.79;33.62
69823;SHT31;57119;52.516;13.508;2023-03-16T15:33:43;16.01;32.74
69823;SHT31;57119;52.516;13.508;2023-03-16T15:36:17;15.94;32.68
69823;SHT31;57119;52.516;13.508;2023-03-16T15:38:49;14.81;34.92
69823;SHT31;57119;52.516;13.508;2023-03-16T15:41:15;14.12;34.53
69823;SHT31;57119;52.516;13.508;2023-03-16T15:43:41;15.39;33.60
69823;SHT31;57119;52.516;13.508;2023-03-16T15:46:08;14.85;32.10
69823;SHT31;57119;52.516;13.508;2023-03-16T15:48:34;13.63;33.68
69823;SHT31;57119;52.516;13.508;2023-03-16T15:51:20;13.71;32.77
69823;SHT31;57119;52.516;13.508;2023-03-16T15:53:52;13.50;33.18
69823;SHT31;57119;52.516;13.508;2023-03-16T15:56:21;12.86;32.83
69823;SHT31;57119;52.516;13.508;2023-03-16T15:58:53;13.52;33.28
69823;SHT31;57119;52.516;13.508;2023-03-16T16:01:23;13.20;32.90
69823;SHT31;57119;52.516;13.508;2023-03-16T16:03:51;13.38;32.88
69823;SHT31;57119;52.516;13.508;2023-03-16T16:06:16;12.87;34.08
69823;SHT31;57119;52.516;13.508;2023-03-16T16:08:42;12.18;34.91
69823;SHT31;57119;52.516;13.508;2023-03-16T16:11:20;11.62;35.48
69823;SHT31;57119;52.516;13.508;2023-03-16T16:13:46;11.60;36.19
69823;SHT31;57119;52.516;13.508;2023-03-16T16:16:14;12.39;35.65
69823;SHT31;57119;52.516;13.508;2023-03-16T16:18:40;11.29;36.68
69823;SHT31;57119;52.516;13.508;2023-03-16T16:21:08;11.36;36.35
69823;SHT31;57119;52.516;13.508;2023-03-16T16:23:38;10.54;38.03
69823;SHT31;57119;52.516;13.508;2023-03-16T16:26:08;9.61;38.91